Portada
METAR-TAF:

METAR-TAF

Aeroports :

Kerteh, Malàisia

latitud: 04-32-15N, longitud: 103-25-36E, altitud: 5 m

Observació

L'informe es va fer fa 55 minuts, a les 07:00 UTC
Vent 6 kt del Est/Nord-Est, variant entre Nord/Nord-Oest i Sud/Sud-Est
Temperatura 31°C
Humitat 79%
Pressió 1006 hPa
Visibilitat 10 km o més
Núvols disperses a una alçada de 1400 ft
Escasses núvols a una alçada de 1500 ft, Cumulonimbus.
Núvols disperses a una alçada de 14000 ft
Cel ennuvolat a una alçada de 27000 ft

METAR: WMKE 230700Z 06006KT 340V150 9999 SCT014 FEW015CB SCT140 BKN270 31/27 Q1006

Hora: 15:55 (07:55 UTC)

Pronòstic

L'informe es va fer fa 2 hores i 55 minuts, a les 05:00 UTC
Pronòstic vàlid del 23 a les 06 UTC al 24 a les 06 UTC
Vent 4 kt amb direcció variable
Visibilitat 10 km o més
Escasses núvols a una alçada de 1400 ft

TAF: WMKE 230500Z 2306/2406 VRB04KT 9999 FEW014

Observacions i pronòstics meteorològics de més de 4000 aeroports (METAR i TAF).

Les estacions disponibles són els punts grocs i vermells al mapa.

Posi el ratolí al punt desitjat per veure el nom de l'estació.

Feu clic per veure les observacions i els pronòstics meteorològics.

Per canviar el mapa: feu clic els botons verds amb una creu de color negre per apropar; al botó verd amb un guió per allunyar la imatge; o en les fletxes verdes per a mapes adjacents.


METAR-TAF: